createdAt,value
2023-04-05T00:01:30.826Z,61.81
2023-04-05T00:03:57.937Z,60.66
2023-04-05T00:06:28.512Z,61.90
2023-04-05T00:08:59.337Z,61.21
2023-04-05T00:11:26.794Z,61.09
2023-04-05T00:13:52.637Z,62.01
2023-04-05T00:16:19.780Z,62.06
2023-04-05T00:18:49.137Z,61.94
2023-04-05T00:21:15.935Z,62.25
2023-04-05T00:23:44.255Z,63.23
2023-04-05T00:26:11.680Z,62.36
2023-04-05T00:28:37.471Z,61.45
2023-04-05T00:31:04.786Z,59.90
2023-04-05T00:33:30.722Z,60.87
2023-04-05T00:35:56.661Z,62.78
2023-04-05T00:38:22.671Z,62.17
2023-04-05T00:40:48.577Z,61.77
2023-04-05T00:43:14.703Z,62.95
2023-04-05T00:45:41.773Z,62.18
2023-04-05T00:48:08.152Z,62.35
2023-04-05T00:50:34.396Z,62.50
2023-04-05T00:53:00.555Z,62.15
2023-04-05T00:55:26.440Z,64.18
2023-04-05T00:57:55.432Z,64.14
2023-04-05T01:00:22.398Z,64.42
2023-04-05T01:02:54.372Z,63.50
2023-04-05T01:05:46.556Z,64.52
2023-04-05T01:08:40.028Z,64.28
2023-04-05T01:11:06.310Z,65.08
2023-04-05T01:13:32.683Z,65.19
2023-04-05T01:15:58.755Z,64.75
2023-04-05T01:18:26.394Z,64.61
2023-04-05T01:21:10.953Z,65.21
2023-04-05T01:23:45.519Z,66.42
2023-04-05T01:26:39.803Z,65.91
2023-04-05T01:29:30.031Z,66.69
2023-04-05T01:32:02.386Z,66.44
2023-04-05T01:34:47.001Z,65.64
2023-04-05T01:37:17.312Z,65.73
2023-04-05T01:39:46.768Z,65.34
2023-04-05T01:42:13.025Z,63.87
2023-04-05T01:44:38.971Z,64.70
2023-04-05T01:47:05.048Z,63.58
2023-04-05T01:49:30.919Z,64.22
2023-04-05T01:51:56.746Z,63.28
2023-04-05T01:54:22.676Z,64.27
2023-04-05T01:56:48.560Z,64.10
2023-04-05T01:59:14.459Z,64.37
2023-04-05T02:01:40.442Z,63.75
2023-04-05T02:04:06.394Z,64.10
2023-04-05T02:06:32.227Z,65.31
2023-04-05T02:08:58.021Z,65.80
2023-04-05T02:11:23.807Z,65.55
2023-04-05T02:13:49.664Z,65.68
2023-04-05T02:16:16.556Z,65.59
2023-04-05T02:18:42.948Z,65.77
2023-04-05T02:21:09.896Z,64.67
2023-04-05T02:23:37.218Z,65.77
2023-04-05T02:26:03.328Z,66.06
2023-04-05T02:28:29.205Z,66.32
2023-04-05T02:30:55.434Z,66.20
2023-04-05T02:33:24.410Z,65.39
2023-04-05T02:35:51.340Z,65.48
2023-04-05T02:38:17.749Z,65.30
2023-04-05T02:40:46.529Z,65.81
2023-04-05T02:43:12.430Z,63.89
2023-04-05T02:45:38.329Z,64.75
2023-04-05T02:48:04.378Z,65.35
2023-04-05T02:50:30.252Z,65.36
2023-04-05T02:52:56.012Z,66.44
2023-04-05T02:55:21.793Z,66.05
2023-04-05T02:57:47.570Z,66.08
2023-04-05T03:00:13.962Z,66.49
2023-04-05T03:02:39.854Z,65.86
2023-04-05T03:05:07.086Z,65.96
2023-04-05T03:07:33.078Z,66.45
2023-04-05T03:09:58.882Z,67.25
2023-04-05T03:12:25.097Z,66.46
2023-04-05T03:14:50.902Z,67.03
2023-04-05T03:17:16.946Z,65.61
2023-04-05T03:19:44.752Z,65.70
2023-04-05T03:22:10.545Z,66.34
2023-04-05T03:24:37.033Z,65.67
2023-04-05T03:27:05.327Z,65.67
2023-04-05T03:29:31.363Z,66.09
2023-04-05T03:31:58.670Z,65.78
2023-04-05T03:34:28.101Z,66.00
2023-04-05T03:36:57.043Z,65.69
2023-04-05T03:39:22.880Z,65.73
2023-04-05T03:41:48.652Z,66.32
2023-04-05T03:44:14.615Z,66.63
2023-04-05T03:46:41.754Z,66.28
2023-04-05T03:49:07.747Z,65.59
2023-04-05T03:51:34.096Z,65.68
2023-04-05T03:53:59.902Z,65.34
2023-04-05T03:56:28.308Z,65.60
2023-04-05T03:58:54.275Z,66.23
2023-04-05T04:01:20.698Z,65.74
2023-04-05T04:03:46.602Z,65.41
2023-04-05T04:06:13.099Z,66.15
2023-04-05T04:08:38.969Z,66.92
2023-04-05T04:11:05.780Z,67.15
2023-04-05T04:13:31.699Z,67.13
2023-04-05T04:15:57.618Z,66.57
2023-04-05T04:18:23.521Z,66.54
2023-04-05T04:20:51.520Z,67.98
2023-04-05T04:23:18.695Z,67.74
2023-04-05T04:25:45.387Z,67.66
2023-04-05T04:28:12.225Z,68.12
2023-04-05T04:30:38.243Z,68.32
2023-04-05T04:33:05.984Z,67.79
2023-04-05T04:35:34.225Z,69.06
2023-04-05T04:38:02.083Z,69.90
2023-04-05T04:40:39.194Z,69.34
2023-04-05T04:43:13.682Z,70.59
2023-04-05T04:45:40.151Z,70.72
2023-04-05T04:48:07.422Z,70.68
2023-04-05T04:50:33.748Z,71.18
2023-04-05T04:53:01.169Z,72.44
2023-04-05T04:55:32.761Z,73.98
2023-04-05T04:57:58.963Z,74.86
2023-04-05T05:00:25.439Z,75.07
2023-04-05T05:02:52.452Z,75.10
2023-04-05T05:05:27.614Z,75.09
2023-04-05T05:07:53.584Z,74.37
2023-04-05T05:10:19.781Z,74.45
2023-04-05T05:12:45.787Z,74.38
2023-04-05T05:15:11.845Z,74.98
2023-04-05T05:17:38.895Z,75.52
2023-04-05T05:20:09.833Z,76.16
2023-04-05T05:22:37.216Z,75.32
2023-04-05T05:25:04.832Z,74.97
2023-04-05T05:27:30.993Z,75.24
2023-04-05T05:29:56.794Z,75.75
2023-04-05T05:32:22.738Z,75.50
2023-04-05T05:34:48.825Z,74.43
2023-04-05T05:37:16.461Z,75.30
2023-04-05T05:39:44.060Z,74.92
2023-04-05T05:42:10.534Z,74.42
2023-04-05T05:44:36.513Z,73.95
2023-04-05T05:47:02.879Z,74.37
2023-04-05T05:49:29.001Z,74.65
2023-04-05T05:51:56.058Z,74.77
2023-04-05T05:54:22.000Z,74.34
2023-04-05T05:56:47.927Z,75.21
2023-04-05T05:59:14.223Z,75.13
2023-04-05T06:01:41.932Z,74.48
2023-04-05T06:04:08.764Z,73.78
2023-04-05T06:06:37.295Z,72.79
2023-04-05T06:09:03.865Z,73.68
2023-04-05T06:11:29.666Z,73.74
2023-04-05T06:13:55.470Z,74.26
2023-04-05T06:16:21.930Z,74.23
2023-04-05T06:18:48.034Z,73.67
2023-04-05T06:21:14.383Z,73.43
2023-04-05T06:23:41.439Z,72.56
2023-04-05T06:26:08.166Z,73.35
2023-04-05T06:28:34.186Z,74.52
2023-04-05T06:31:00.257Z,74.36
2023-04-05T06:33:26.344Z,75.38
2023-04-05T06:35:52.458Z,75.93
2023-04-05T06:38:18.420Z,73.96
2023-04-05T06:40:44.425Z,75.57
2023-04-05T06:43:10.395Z,76.76
2023-04-05T06:45:36.701Z,75.87
2023-04-05T06:48:02.783Z,75.50
2023-04-05T06:50:28.684Z,75.34
2023-04-05T06:52:54.503Z,75.38
2023-04-05T06:55:21.135Z,75.64
2023-04-05T06:57:47.106Z,75.32
2023-04-05T07:00:15.382Z,75.64
2023-04-05T07:02:41.316Z,74.77
2023-04-05T07:05:08.182Z,73.17
2023-04-05T07:07:38.511Z,73.12
2023-04-05T07:10:05.017Z,73.45
2023-04-05T07:12:31.593Z,72.22
2023-04-05T07:14:59.225Z,72.47
2023-04-05T07:17:25.473Z,70.15
2023-04-05T07:19:51.290Z,69.27
2023-04-05T07:22:17.079Z,69.48
2023-04-05T07:24:44.616Z,69.59
2023-04-05T07:27:10.438Z,67.81
2023-04-05T07:29:39.932Z,67.64
2023-04-05T07:32:07.235Z,68.68
2023-04-05T07:34:34.453Z,69.02
2023-04-05T07:37:00.397Z,67.20
2023-04-05T07:39:26.352Z,65.81
2023-04-05T07:41:52.114Z,64.71
2023-04-05T07:44:17.937Z,64.43
2023-04-05T07:46:47.557Z,64.50
2023-04-05T07:49:14.846Z,63.38
2023-04-05T07:51:42.351Z,62.85
2023-04-05T07:54:08.184Z,61.67
2023-04-05T07:56:36.623Z,61.66
2023-04-05T07:59:02.459Z,60.21
2023-04-05T08:01:28.890Z,59.79
2023-04-05T08:03:56.767Z,58.75
2023-04-05T08:06:23.978Z,57.44
2023-04-05T08:08:50.328Z,57.03
2023-04-05T08:11:16.180Z,57.31
2023-04-05T08:13:42.251Z,56.31
2023-04-05T08:16:09.057Z,56.75
2023-04-05T08:18:35.161Z,56.08
2023-04-05T08:21:01.125Z,57.21
2023-04-05T08:23:26.991Z,56.47
2023-04-05T08:25:53.539Z,56.55
2023-04-05T08:28:19.865Z,55.79
2023-04-05T08:30:45.904Z,55.96
2023-04-05T08:33:11.822Z,56.38
2023-04-05T08:35:38.593Z,56.18
2023-04-05T08:38:06.052Z,55.68
2023-04-05T08:40:45.012Z,54.65
2023-04-05T08:43:59.349Z,54.41
2023-04-05T08:46:26.512Z,53.89
2023-04-05T08:48:52.398Z,53.27
2023-04-05T08:51:22.381Z,53.43
2023-04-05T08:53:48.504Z,54.11
2023-04-05T08:56:24.719Z,54.53
2023-04-05T08:59:11.243Z,54.43
2023-04-05T09:01:41.435Z,53.20
2023-04-05T09:04:13.462Z,53.92
2023-04-05T09:06:39.764Z,53.51
2023-04-05T09:09:07.540Z,53.03
2023-04-05T09:11:34.823Z,52.96
2023-04-05T09:14:04.995Z,54.17
2023-04-05T09:16:33.219Z,53.96
2023-04-05T09:18:59.164Z,53.44
2023-04-05T09:21:28.845Z,51.36
2023-04-05T09:23:55.097Z,51.20
2023-04-05T09:26:23.537Z,51.78
2023-04-05T09:28:49.933Z,51.72
2023-04-05T09:31:36.207Z,51.50
2023-04-05T09:34:06.388Z,50.81
2023-04-05T09:36:36.661Z,48.32
2023-04-05T09:39:06.843Z,47.80
2023-04-05T09:41:34.198Z,48.51
2023-04-05T09:44:00.587Z,48.36
2023-04-05T09:46:36.460Z,47.61
2023-04-05T09:49:03.282Z,47.44
2023-04-05T09:51:37.236Z,48.52
2023-04-05T09:54:10.592Z,49.07
2023-04-05T09:56:38.612Z,50.04
2023-04-05T09:59:11.754Z,48.67
2023-04-05T10:01:42.442Z,48.45
2023-04-05T10:04:08.579Z,46.49
2023-04-05T10:06:52.771Z,48.14
2023-04-05T10:09:19.089Z,45.90
2023-04-05T10:11:45.460Z,45.48
2023-04-05T10:14:11.319Z,46.37
2023-04-05T10:17:03.974Z,44.91
2023-04-05T10:19:44.491Z,43.49
2023-04-05T10:22:16.983Z,42.20
2023-04-05T10:24:51.382Z,39.44
2023-04-05T10:27:39.706Z,40.33
2023-04-05T10:30:08.505Z,38.37
2023-04-05T10:32:52.559Z,39.13
2023-04-05T10:35:42.858Z,38.06
2023-04-05T10:38:26.112Z,37.12
2023-04-05T10:40:55.974Z,35.80
2023-04-05T10:43:25.032Z,34.83
2023-04-05T10:45:53.086Z,35.23
2023-04-05T10:48:54.782Z,34.30
2023-04-05T10:51:27.380Z,33.04
2023-04-05T10:53:55.531Z,33.16
2023-04-05T10:56:22.055Z,34.26
2023-04-05T10:58:49.886Z,32.36
2023-04-05T11:01:16.843Z,31.90
2023-04-05T11:03:49.842Z,31.45
2023-04-05T11:06:20.248Z,32.30
2023-04-05T11:08:47.460Z,30.78
2023-04-05T11:11:16.222Z,28.81
2023-04-05T11:13:52.584Z,29.75
2023-04-05T11:16:18.877Z,28.45
2023-04-05T11:18:47.109Z,27.91
2023-04-05T11:21:21.502Z,28.84
2023-04-05T11:24:08.045Z,28.51
2023-04-05T11:26:53.665Z,28.75
2023-04-05T11:29:47.496Z,29.78
2023-04-05T11:32:13.399Z,29.27
2023-04-05T11:34:41.691Z,29.00
2023-04-05T11:37:08.699Z,30.93
2023-04-05T11:39:36.599Z,29.28
2023-04-05T11:42:11.546Z,29.26
2023-04-05T11:44:47.094Z,28.82
2023-04-05T11:47:15.971Z,29.48
2023-04-05T11:49:41.808Z,27.59
2023-04-05T11:52:11.815Z,29.00
2023-04-05T11:54:39.098Z,29.33
2023-04-05T11:57:06.205Z,28.82
2023-04-05T11:59:33.860Z,28.62
2023-04-05T12:02:08.441Z,27.72
2023-04-05T12:04:36.011Z,26.98
2023-04-05T12:07:19.158Z,28.17
2023-04-05T12:10:06.355Z,28.97
2023-04-05T12:12:37.573Z,30.00
2023-04-05T12:15:05.035Z,30.24
2023-04-05T12:17:38.532Z,32.37
2023-04-05T12:20:05.574Z,33.15
2023-04-05T12:22:31.806Z,32.90
2023-04-05T12:24:57.857Z,32.28
2023-04-05T12:27:24.682Z,33.95
2023-04-05T12:30:18.598Z,34.35
2023-04-05T12:32:44.532Z,33.14
2023-04-05T12:35:12.202Z,33.73
2023-04-05T12:37:39.708Z,34.52
2023-04-05T12:40:06.114Z,34.03
2023-04-05T12:42:36.786Z,35.45
2023-04-05T12:45:10.391Z,36.09
2023-04-05T12:48:14.958Z,36.15
2023-04-05T12:50:47.971Z,36.31
2023-04-05T12:53:19.750Z,37.07
2023-04-05T12:55:56.180Z,36.03
2023-04-05T12:58:31.407Z,35.49
2023-04-05T13:00:58.031Z,35.53
2023-04-05T13:03:26.495Z,36.74
2023-04-05T13:05:52.680Z,36.16
2023-04-05T13:08:18.881Z,35.93
2023-04-05T13:10:45.893Z,34.82
2023-04-05T13:13:13.251Z,33.09
2023-04-05T13:15:39.341Z,31.63
2023-04-05T13:18:05.557Z,31.03
2023-04-05T13:20:31.869Z,30.71
2023-04-05T13:22:58.072Z,31.53
2023-04-05T13:25:24.063Z,30.89
2023-04-05T13:27:50.204Z,31.03
2023-04-05T13:30:16.512Z,31.72
2023-04-05T13:32:42.520Z,32.42
2023-04-05T13:35:08.640Z,32.53
2023-04-05T13:37:35.470Z,32.61
2023-04-05T13:40:01.384Z,32.97
2023-04-05T13:42:27.457Z,33.56
2023-04-05T13:44:54.404Z,33.71
2023-04-05T13:47:20.239Z,34.64
2023-04-05T13:49:46.300Z,33.81
2023-04-05T13:52:12.305Z,33.69
2023-04-05T13:54:38.200Z,34.81
2023-04-05T13:57:04.870Z,34.94
2023-04-05T13:59:30.792Z,34.79
2023-04-05T14:01:57.063Z,36.00
2023-04-05T14:04:23.050Z,36.79
2023-04-05T14:06:48.919Z,35.39
2023-04-05T14:09:14.910Z,37.05
2023-04-05T14:11:40.843Z,36.34
2023-04-05T14:14:06.750Z,36.43
2023-04-05T14:16:32.775Z,36.66
2023-04-05T14:18:58.640Z,36.92
2023-04-05T14:21:25.242Z,37.22
2023-04-05T14:23:56.104Z,37.27
2023-04-05T14:26:26.282Z,37.61
2023-04-05T14:28:52.905Z,37.53
2023-04-05T14:31:20.063Z,37.41
2023-04-05T14:33:46.156Z,37.16
2023-04-05T14:36:12.175Z,37.84
2023-04-05T14:38:38.005Z,38.05
2023-04-05T14:41:05.338Z,37.38
2023-04-05T14:43:31.430Z,36.29
2023-04-05T14:45:57.413Z,34.28
2023-04-05T14:48:23.452Z,35.13
2023-04-05T14:50:50.106Z,35.53
2023-04-05T14:53:16.227Z,35.92
2023-04-05T14:55:42.096Z,36.45
2023-04-05T14:58:07.967Z,36.10
2023-04-05T15:00:35.044Z,36.50
2023-04-05T15:03:01.068Z,36.14
2023-04-05T15:05:27.072Z,36.32
2023-04-05T15:07:52.973Z,35.87
2023-04-05T15:10:19.522Z,35.47
2023-04-05T15:12:45.604Z,34.81
2023-04-05T15:15:11.497Z,35.52
2023-04-05T15:17:37.532Z,34.53
2023-04-05T15:20:03.738Z,35.56
2023-04-05T15:22:30.134Z,34.08
2023-04-05T15:24:56.631Z,32.17
2023-04-05T15:27:22.619Z,31.72
2023-04-05T15:29:48.588Z,32.32
2023-04-05T15:32:15.401Z,32.48
2023-04-05T15:34:41.348Z,30.47
2023-04-05T15:37:07.292Z,31.16
2023-04-05T15:39:33.209Z,31.26
2023-04-05T15:42:02.257Z,31.43
2023-04-05T15:44:28.287Z,29.22
2023-04-05T15:46:54.191Z,29.62
2023-04-05T15:49:20.133Z,30.18
2023-04-05T15:51:46.067Z,30.08
2023-04-05T15:54:17.713Z,31.07
2023-04-05T15:56:44.224Z,31.98
2023-04-05T15:59:10.438Z,31.53
2023-04-05T16:01:37.028Z,31.47
2023-04-05T16:04:03.843Z,31.37
2023-04-05T16:06:30.724Z,30.95
2023-04-05T16:08:56.800Z,31.66
2023-04-05T16:11:22.986Z,31.15
2023-04-05T16:13:49.135Z,31.52
2023-04-05T16:16:20.423Z,31.93
2023-04-05T16:18:53.880Z,31.72
2023-04-05T16:21:19.947Z,31.59
2023-04-05T16:23:46.030Z,31.83
2023-04-05T16:26:12.961Z,31.88
2023-04-05T16:28:39.376Z,30.85
2023-04-05T16:31:05.322Z,31.82
2023-04-05T16:33:31.297Z,31.82
2023-04-05T16:35:58.198Z,32.87
2023-04-05T16:38:24.773Z,32.54
2023-04-05T16:40:50.641Z,33.71
2023-04-05T16:43:16.643Z,34.47
2023-04-05T16:45:43.480Z,35.30
2023-04-05T16:48:09.780Z,35.79
2023-04-05T16:50:36.634Z,36.17
2023-04-05T16:53:02.696Z,36.04
2023-04-05T16:55:28.598Z,36.86
2023-04-05T16:57:56.378Z,36.92
2023-04-05T17:00:23.191Z,36.52
2023-04-05T17:02:50.099Z,36.17
2023-04-05T17:05:16.393Z,37.19
2023-04-05T17:07:42.364Z,37.29
2023-04-05T17:10:08.852Z,37.36
2023-04-05T17:12:35.700Z,36.82
2023-04-05T17:15:02.298Z,37.81
2023-04-05T17:17:28.569Z,37.33
2023-04-05T17:19:54.686Z,37.41
2023-04-05T17:22:20.651Z,37.89
2023-04-05T17:24:46.573Z,37.88
2023-04-05T17:27:12.486Z,38.27
2023-04-05T17:29:38.869Z,38.77
2023-04-05T17:32:06.116Z,39.28
2023-04-05T17:34:32.140Z,39.13
2023-04-05T17:36:58.194Z,39.26
2023-04-05T17:39:24.771Z,39.51
2023-04-05T17:41:53.882Z,39.42
2023-04-05T17:44:19.917Z,39.41
2023-04-05T17:46:53.968Z,39.90
2023-04-05T17:49:23.534Z,40.78
2023-04-05T17:51:49.663Z,40.62
2023-04-05T17:54:15.908Z,40.83
2023-04-05T17:56:42.178Z,41.05
2023-04-05T17:59:08.637Z,41.10
2023-04-05T18:01:35.182Z,41.76
2023-04-05T18:04:01.707Z,41.90
2023-04-05T18:06:29.027Z,41.27
2023-04-05T18:08:55.030Z,41.93
2023-04-05T18:11:21.175Z,42.27
2023-04-05T18:13:47.218Z,42.85
2023-04-05T18:16:13.319Z,42.63
2023-04-05T18:18:39.325Z,42.95
2023-04-05T18:21:05.513Z,42.99
2023-04-05T18:23:31.564Z,42.04
2023-04-05T18:25:57.628Z,42.41
2023-04-05T18:28:23.901Z,42.84
2023-04-05T18:30:50.513Z,42.20
2023-04-05T18:33:17.022Z,42.13
2023-04-05T18:35:48.869Z,43.33
2023-04-05T18:38:15.113Z,43.42
2023-04-05T18:40:42.275Z,42.94
2023-04-05T18:43:08.377Z,42.95
2023-04-05T18:45:37.246Z,43.59
2023-04-05T18:48:03.451Z,43.21
2023-04-05T18:50:29.695Z,43.30
2023-04-05T18:52:55.708Z,43.60
2023-04-05T18:55:21.846Z,43.81
2023-04-05T18:57:47.813Z,43.91
2023-04-05T19:00:14.163Z,44.59
2023-04-05T19:02:40.737Z,44.33
2023-04-05T19:05:07.189Z,44.50
2023-04-05T19:07:33.196Z,44.31
2023-04-05T19:09:59.562Z,44.52
2023-04-05T19:12:25.532Z,44.81
2023-04-05T19:14:51.517Z,45.05
2023-04-05T19:17:17.653Z,45.32
2023-04-05T19:19:43.795Z,45.43
2023-04-05T19:22:10.611Z,45.22
2023-04-05T19:24:39.278Z,44.75
2023-04-05T19:27:05.499Z,44.77
2023-04-05T19:29:34.403Z,44.72
2023-04-05T19:32:00.595Z,45.10
2023-04-05T19:34:26.702Z,45.94
2023-04-05T19:36:52.807Z,46.79
2023-04-05T19:39:25.361Z,47.23
2023-04-05T19:41:51.729Z,47.20
2023-04-05T19:44:36.994Z,48.09
2023-04-05T19:47:13.493Z,49.21
2023-04-05T19:49:41.645Z,49.81
2023-04-05T19:52:33.393Z,50.12
2023-04-05T19:55:00.836Z,50.33
2023-04-05T19:57:28.097Z,50.64
2023-04-05T19:59:54.304Z,50.14
2023-04-05T20:02:38.275Z,50.20
2023-04-05T20:05:13.395Z,50.76
2023-04-05T20:07:39.433Z,50.84
2023-04-05T20:10:35.330Z,50.79
2023-04-05T20:13:01.595Z,50.49
2023-04-05T20:15:35.838Z,50.93
2023-04-05T20:18:03.751Z,51.37
2023-04-05T20:20:30.492Z,51.75
2023-04-05T20:22:57.235Z,51.67
2023-04-05T20:25:37.000Z,52.26
2023-04-05T20:28:21.237Z,52.42
2023-04-05T20:30:47.221Z,53.42
2023-04-05T20:33:50.107Z,53.23
2023-04-05T20:36:19.036Z,53.84
2023-04-05T20:38:45.984Z,54.28
2023-04-05T20:41:13.495Z,54.61
2023-04-05T20:43:41.206Z,54.97
2023-04-05T20:46:07.690Z,55.05
2023-04-05T20:48:34.908Z,56.08
2023-04-05T20:51:02.873Z,57.63
2023-04-05T20:53:29.526Z,57.99
2023-04-05T20:55:56.033Z,58.32
2023-04-05T20:58:22.304Z,57.79
2023-04-05T21:00:48.609Z,58.21
2023-04-05T21:03:15.279Z,58.08
2023-04-05T21:05:41.449Z,58.47
2023-04-05T21:08:07.526Z,59.03
2023-04-05T21:10:34.156Z,60.05
2023-04-05T21:13:00.279Z,60.29
2023-04-05T21:15:33.881Z,60.38
2023-04-05T21:18:05.210Z,60.94
2023-04-05T21:20:31.408Z,60.87
2023-04-05T21:22:58.486Z,60.38
2023-04-05T21:25:24.907Z,60.49
2023-04-05T21:27:51.274Z,60.11
2023-04-05T21:30:17.664Z,60.04
2023-04-05T21:32:44.418Z,59.62
2023-04-05T21:35:10.939Z,59.49
2023-04-05T21:37:37.069Z,59.59
2023-04-05T21:40:03.749Z,59.63
2023-04-05T21:42:31.151Z,60.13
2023-04-05T21:44:57.384Z,59.80
2023-04-05T21:47:23.541Z,59.59
2023-04-05T21:49:49.983Z,60.04
2023-04-05T21:52:15.949Z,60.22
2023-04-05T21:54:42.010Z,60.63
2023-04-05T21:57:07.953Z,60.49
2023-04-05T21:59:34.073Z,60.52
2023-04-05T22:02:00.816Z,60.13
2023-04-05T22:04:28.360Z,61.19
2023-04-05T22:06:55.164Z,60.69
2023-04-05T22:09:21.431Z,61.01
2023-04-05T22:11:49.596Z,60.24
2023-04-05T22:14:15.733Z,60.75
2023-04-05T22:16:42.047Z,62.51
2023-04-05T22:19:11.015Z,63.14
2023-04-05T22:21:37.299Z,65.54
2023-04-05T22:24:03.311Z,66.83
2023-04-05T22:26:29.472Z,68.02
2023-04-05T22:28:55.608Z,67.99
2023-04-05T22:31:21.584Z,67.00
2023-04-05T22:33:47.671Z,66.34
2023-04-05T22:36:13.704Z,65.87
2023-04-05T22:38:39.789Z,65.26
2023-04-05T22:41:05.845Z,64.63
2023-04-05T22:43:31.872Z,65.46
2023-04-05T22:45:57.887Z,65.34
2023-04-05T22:48:23.861Z,64.49
2023-04-05T22:50:50.855Z,63.53
2023-04-05T22:53:17.091Z,62.82
2023-04-05T22:55:43.160Z,61.80
2023-04-05T22:58:09.724Z,61.29
2023-04-05T23:00:36.732Z,61.79
2023-04-05T23:03:03.263Z,61.11
2023-04-05T23:05:29.307Z,60.85
2023-04-05T23:07:55.618Z,60.25
2023-04-05T23:10:21.656Z,60.50
2023-04-05T23:12:48.020Z,59.48
2023-04-05T23:15:14.489Z,59.36
2023-04-05T23:17:40.640Z,58.76
2023-04-05T23:20:08.664Z,59.23
2023-04-05T23:22:35.489Z,58.87
2023-04-05T23:25:03.622Z,58.68
2023-04-05T23:27:30.775Z,58.82
2023-04-05T23:29:56.945Z,58.91
2023-04-05T23:32:22.992Z,58.93
2023-04-05T23:34:49.375Z,58.61
2023-04-05T23:37:15.941Z,58.09
2023-04-05T23:39:42.466Z,58.67
2023-04-05T23:42:09.149Z,58.53
2023-04-05T23:44:36.831Z,58.64
2023-04-05T23:47:04.369Z,58.58
2023-04-05T23:49:30.455Z,58.99
2023-04-05T23:51:56.411Z,58.80
2023-04-05T23:54:22.428Z,59.34
2023-04-05T23:56:48.617Z,59.53
2023-04-05T23:59:15.184Z,58.73
